Time;durP1;ratioP1;P1;durP2;ratioP2;P2;SDS_P1;SDS_P2;PMS_P1;PMS_P2;Temp;Humidity;BMP_temperature;BMP_pressure;BME280_temperature;BME280_humidity;BME280_pressure;Samples;Min_cycle;Max_cycle;Signal;HPM_P1;HPM_P2
2022/05/06 00:01:57;;;;;;;1.05;0.60;;;;;;;26.36;31.12;102511.66;5053153;28;20083;-47
2022/05/06 00:04:25;;;;;;;0.90;0.40;;;;;;;26.42;31.04;102515.28;5053773;28;20033;-47
2022/05/06 00:06:54;;;;;;;1.13;0.60;;;;;;;26.36;31.07;102514.28;5053565;28;20556;-45
2022/05/06 00:09:23;;;;;;;0.73;0.65;;;;;;;26.36;31.06;102505.47;5053565;28;20033;-47
2022/05/06 00:11:51;;;;;;;0.45;0.40;;;;;;;26.37;31.02;102517.78;5053444;28;20083;-45
2022/05/06 00:14:20;;;;;;;0.80;0.60;;;;;;;26.36;31.20;102514.28;5053155;28;20051;-48
2022/05/06 00:16:49;;;;;;;1.10;0.50;;;;;;;26.39;31.12;102522.22;5053547;28;20028;-48
2022/05/06 00:19:18;;;;;;;0.57;0.50;;;;;;;26.40;31.12;102509.97;5053912;28;20037;-49
2022/05/06 00:21:46;;;;;;;1.13;0.60;;;;;;;26.37;30.96;102515.16;5053292;28;20041;-47
2022/05/06 00:24:15;;;;;;;0.60;0.60;;;;;;;26.33;31.18;102516.81;5053391;28;20029;-45
2022/05/06 00:26:43;;;;;;;1.10;0.60;;;;;;;26.33;31.40;102506.28;5053414;28;20060;-48
2022/05/06 00:29:12;;;;;;;1.08;0.50;;;;;;;26.30;31.07;102513.22;5053402;28;20029;-47
2022/05/06 00:31:40;;;;;;;0.75;0.60;;;;;;;26.25;31.17;102510.44;5054033;28;20151;-46
2022/05/06 00:34:10;;;;;;;0.85;0.55;;;;;;;26.30;31.21;102515.84;5053011;28;20541;-45
2022/05/06 00:36:38;;;;;;;0.85;0.50;;;;;;;26.27;31.06;102506.09;5053323;28;20478;-45
2022/05/06 00:39:07;;;;;;;0.50;0.50;;;;;;;26.23;31.27;102499.88;5053183;28;20037;-45
2022/05/06 00:41:36;;;;;;;1.25;0.70;;;;;;;26.23;31.17;102497.25;5068651;28;20020;-49
2022/05/06 00:44:07;;;;;;;0.80;0.50;;;;;;;26.20;31.21;102483.13;5053074;28;20430;-50
2022/05/06 00:46:39;;;;;;;1.58;0.60;;;;;;;26.19;31.05;102487.50;5052907;28;20025;-46
2022/05/06 00:49:12;;;;;;;1.02;0.60;;;;;;;26.13;31.34;102479.44;5053080;28;20557;-47
2022/05/06 00:51:41;;;;;;;1.50;0.60;;;;;;;26.03;31.35;102482.63;5053384;28;20057;-48
2022/05/06 00:54:09;;;;;;;0.80;0.60;;;;;;;26.00;31.60;102475.53;5052354;28;20028;-45
2022/05/06 00:56:39;;;;;;;0.85;0.55;;;;;;;25.90;31.93;102489.25;5053231;28;20104;-46
2022/05/06 00:59:07;;;;;;;0.80;0.60;;;;;;;25.87;32.03;102492.69;5052923;28;20115;-50
2022/05/06 01:01:36;;;;;;;0.80;0.57;;;;;;;25.79;31.85;102479.31;5053069;28;20426;-48
2022/05/06 01:04:06;;;;;;;1.00;0.60;;;;;;;25.77;31.85;102485.41;5052676;28;20025;-44
2022/05/06 01:06:36;;;;;;;1.33;0.75;;;;;;;25.66;32.26;102482.44;5051592;28;20379;-45
2022/05/06 01:09:05;;;;;;;0.45;0.45;;;;;;;25.71;32.10;102488.75;5053151;28;20036;-48
2022/05/06 01:11:34;;;;;;;3.08;0.60;;;;;;;25.71;32.10;102482.56;5053047;28;20021;-50
2022/05/06 01:14:03;;;;;;;1.45;1.02;;;;;;;25.69;31.61;102487.78;5051685;28;20029;-47
2022/05/06 01:16:36;;;;;;;0.88;0.55;;;;;;;25.73;32.11;102496.66;5052855;28;20474;-46
2022/05/06 01:19:05;;;;;;;1.00;0.60;;;;;;;25.73;31.99;102499.28;5052772;28;20037;-50
2022/05/06 01:21:41;;;;;;;0.63;0.50;;;;;;;25.73;32.18;102496.66;5051247;28;20103;-47
2022/05/06 01:24:09;;;;;;;0.77;0.63;;;;;;;25.78;31.95;102495.06;5053180;28;20449;-44
2022/05/06 01:26:51;;;;;;;2.17;0.60;;;;;;;25.80;31.80;102501.25;5056580;28;20025;-46
2022/05/06 01:29:20;;;;;;;1.90;1.10;;;;;;;25.69;31.99;102497.41;5056462;28;20039;-50
2022/05/06 01:31:48;;;;;;;0.65;0.60;;;;;;;25.71;31.76;102506.22;5055004;28;20033;-44
2022/05/06 01:34:17;;;;;;;0.80;0.60;;;;;;;25.67;31.72;102506.97;5056448;28;20078;-46
2022/05/06 01:36:48;;;;;;;1.10;0.60;;;;;;;25.72;31.99;102518.53;5055294;28;20078;-48
2022/05/06 01:39:20;;;;;;;1.58;0.63;;;;;;;25.75;31.77;102519.50;5056475;28;20479;-46
2022/05/06 01:41:53;;;;;;;0.68;0.68;;;;;;;25.73;31.65;102520.31;5056309;28;20167;-45
2022/05/06 01:44:22;;;;;;;0.98;0.50;;;;;;;25.77;31.80;102525.69;5055003;28;20033;-45
2022/05/06 01:46:50;;;;;;;1.45;0.43;;;;;;;25.74;31.59;102522.09;5054705;28;20036;-44
2022/05/06 01:49:19;;;;;;;2.15;0.43;;;;;;;25.66;32.04;102507.81;5071648;28;20029;-47
2022/05/06 01:51:48;;;;;;;1.42;0.50;;;;;;;25.72;31.68;102523.78;5054897;28;20424;-48
2022/05/06 01:54:16;;;;;;;0.63;0.43;;;;;;;25.71;31.67;102520.28;5056271;28;20035;-47
2022/05/06 01:56:47;;;;;;;1.10;0.70;;;;;;;25.70;31.91;102528.09;5055105;28;20471;-45
2022/05/06 01:59:15;;;;;;;0.68;0.68;;;;;;;25.70;31.56;102533.34;5056392;28;20048;-49
2022/05/06 02:01:43;;;;;;;1.42;0.50;;;;;;;25.65;31.63;102516.56;5056466;28;20463;-44
2022/05/06 02:06:58;;;;;;;0.60;0.57;;;;;;;25.69;31.78;102515.81;5054444;28;20033;-45
2022/05/06 02:09:27;;;;;;;0.63;0.57;;;;;;;25.64;31.88;102510.41;5055980;28;20025;-50
2022/05/06 02:11:55;;;;;;;2.85;0.55;;;;;;;25.60;32.06;102516.41;5056034;28;20425;-44
2022/05/06 02:14:24;;;;;;;0.70;0.70;;;;;;;25.65;31.90;102514.81;5055631;28;20397;-47
2022/05/06 02:16:51;;;;;;;0.80;0.70;;;;;;;25.63;31.76;102519.13;5055519;28;20028;-46
2022/05/06 02:19:20;;;;;;;0.98;0.50;;;;;;;25.58;32.17;102516.38;5055741;28;20021;-51
2022/05/06 02:21:48;;;;;;;0.50;0.50;;;;;;;25.59;31.97;102528.66;5055657;28;20041;-46
2022/05/06 02:24:15;;;;;;;0.80;0.70;;;;;;;25.63;31.86;102533.19;5055589;28;20025;-45
2022/05/06 02:26:44;;;;;;;1.48;0.77;;;;;;;25.60;31.95;102524.28;5055370;28;20032;-44
2022/05/06 02:29:12;;;;;;;0.95;0.55;;;;;;;25.55;31.83;102524.16;5055571;28;20065;-44
2022/05/06 02:34:28;;;;;;;0.70;0.55;;;;;;;25.50;31.74;102528.38;5054663;28;20490;-45
2022/05/06 02:36:57;;;;;;;1.13;0.70;;;;;;;25.49;31.82;102534.47;5053916;28;20033;-44
2022/05/06 02:39:25;;;;;;;1.60;0.50;;;;;;;25.52;32.10;102531.06;5055342;28;20156;-50
2022/05/06 02:41:53;;;;;;;0.45;0.45;;;;;;;25.52;31.61;102524.06;5053600;28;20029;-44
2022/05/06 02:44:22;;;;;;;1.20;0.57;;;;;;;25.51;31.71;102521.41;5055277;28;20025;-44
2022/05/06 02:46:51;;;;;;;0.80;0.60;;;;;;;25.47;31.78;102523.91;5055018;28;20032;-52
2022/05/06 02:49:19;;;;;;;0.77;0.70;;;;;;;25.50;31.84;102519.59;5055094;28;20037;-44
2022/05/06 02:51:49;;;;;;;0.85;0.65;;;;;;;25.46;31.78;102522.13;5055122;28;20478;-45
2022/05/06 02:54:21;;;;;;;0.88;0.70;;;;;;;25.48;31.69;102523.09;5054919;28;20139;-44
2022/05/06 02:56:49;;;;;;;1.13;0.50;;;;;;;25.51;31.88;102524.03;5055244;28;20048;-44
2022/05/06 02:59:18;;;;;;;2.90;1.30;;;;;;;25.44;31.69;102525.56;5054985;28;20036;-44
2022/05/06 03:01:47;;;;;;;0.80;0.70;;;;;;;25.47;31.75;102536.19;5054856;28;20025;-48
2022/05/06 03:04:15;;;;;;;0.82;0.50;;;;;;;25.44;32.17;102533.44;5054934;28;20025;-49
2022/05/06 03:06:44;;;;;;;0.47;0.47;;;;;;;25.42;32.07;102532.50;5054821;28;20055;-51
2022/05/06 03:09:13;;;;;;;0.65;0.43;;;;;;;25.43;31.82;102531.66;5054868;28;20029;-48
2022/05/06 03:11:42;;;;;;;3.95;0.73;;;;;;;25.41;32.03;102530.69;5054510;28;20057;-48
2022/05/06 03:14:10;;;;;;;0.75;0.65;;;;;;;25.43;31.85;102529.91;5054309;28;20033;-46
2022/05/06 03:16:38;;;;;;;0.45;0.45;;;;;;;25.40;32.08;102527.16;5054524;28;20094;-45
2022/05/06 03:19:07;;;;;;;0.88;0.47;;;;;;;25.39;31.94;102521.88;5054513;28;20032;-49
2022/05/06 03:21:36;;;;;;;0.80;0.55;;;;;;;25.43;31.65;102522.03;5069810;28;20045;-45
2022/05/06 03:24:04;;;;;;;1.20;0.60;;;;;;;25.42;31.96;102516.75;5054590;28;20017;-48
2022/05/06 03:26:33;;;;;;;0.98;0.52;;;;;;;25.44;31.64;102526.44;5054352;28;20086;-45
2022/05/06 03:29:02;;;;;;;0.63;0.35;;;;;;;25.41;31.56;102520.19;5054580;28;20125;-48
2022/05/06 03:31:30;;;;;;;1.00;0.50;;;;;;;25.38;31.65;102518.34;5054393;28;20033;-47
2022/05/06 03:34:01;;;;;;;0.65;0.60;;;;;;;25.36;32.09;102517.41;5054255;28;20048;-51
2022/05/06 03:36:30;;;;;;;1.35;0.60;;;;;;;25.39;31.86;102516.59;5054426;28;20029;-46
2022/05/06 03:38:58;;;;;;;0.93;0.60;;;;;;;25.42;31.81;102519.38;5054224;28;20116;-45
2022/05/06 03:41:27;;;;;;;0.43;0.43;;;;;;;25.41;31.59;102513.19;5053027;28;20035;-46
2022/05/06 03:43:56;;;;;;;0.40;0.40;;;;;;;25.45;31.81;102515.09;5054090;28;20045;-47
2022/05/06 03:46:24;;;;;;;0.82;0.60;;;;;;;25.43;31.56;102511.53;5054615;28;20033;-44
2022/05/06 03:48:53;;;;;;;0.65;0.50;;;;;;;25.36;31.63;102492.88;5053505;28;20032;-44
2022/05/06 03:51:22;;;;;;;0.95;0.50;;;;;;;25.37;31.99;102495.56;5053532;28;20032;-46
2022/05/06 03:53:55;;;;;;;0.47;0.47;;;;;;;25.37;31.75;102495.56;5053989;28;20036;-48
2022/05/06 03:56:25;;;;;;;0.40;0.40;;;;;;;25.37;31.61;102498.19;5053828;28;20037;-46
2022/05/06 03:58:54;;;;;;;0.85;0.52;;;;;;;25.44;31.71;102504.56;5053806;28;20067;-49
2022/05/06 04:01:22;;;;;;;0.68;0.47;;;;;;;25.40;31.51;102500.88;5054166;28;20032;-44
2022/05/06 04:03:51;;;;;;;0.50;0.50;;;;;;;25.45;31.33;102509.84;5053830;28;20103;-46
2022/05/06 04:06:20;;;;;;;0.60;0.55;;;;;;;25.41;31.77;102504.41;5053896;28;20078;-49
2022/05/06 04:08:48;;;;;;;0.60;0.38;;;;;;;25.38;31.39;102499.97;5053347;28;20485;-44
2022/05/06 04:11:19;;;;;;;0.50;0.50;;;;;;;25.41;31.29;102492.16;5053615;28;20057;-44
2022/05/06 04:13:48;;;;;;;0.60;0.50;;;;;;;25.39;31.73;102498.22;5053646;28;20104;-48
2022/05/06 04:16:16;;;;;;;0.45;0.45;;;;;;;25.44;31.56;102494.03;5053528;28;20029;-45
2022/05/06 04:18:45;;;;;;;0.50;0.50;;;;;;;25.41;31.74;102491.28;5053500;28;20060;-44
2022/05/06 04:24:01;;;;;;;1.38;0.40;;;;;;;25.39;31.60;102493.88;5049086;28;20032;-45
2022/05/06 04:26:30;;;;;;;0.50;0.50;;;;;;;25.41;31.50;102484.28;5053294;28;20071;-43
2022/05/06 04:28:59;;;;;;;0.50;0.40;;;;;;;25.42;31.49;102485.22;5053079;28;20033;-44
2022/05/06 04:31:27;;;;;;;0.60;0.60;;;;;;;25.38;31.23;102478.94;5053249;28;20509;-49
2022/05/06 04:33:56;;;;;;;0.45;0.45;;;;;;;25.31;31.69;102475.25;5053507;28;20082;-48
2022/05/06 04:36:25;;;;;;;0.40;0.40;;;;;;;25.41;31.35;102489.53;5068727;28;20021;-43
2022/05/06 04:38:53;;;;;;;0.50;0.45;;;;;;;25.41;31.24;102481.66;5068657;28;20035;-46
2022/05/06 04:41:22;;;;;;;0.63;0.40;;;;;;;25.38;31.15;102476.31;5053344;28;20036;-45
2022/05/06 04:43:50;;;;;;;0.50;0.50;;;;;;;25.40;31.36;102468.47;5052985;28;20467;-49
2022/05/06 04:46:19;;;;;;;1.70;0.55;;;;;;;25.36;31.51;102477.09;5053330;28;20029;-45
2022/05/06 04:48:47;;;;;;;1.70;0.55;;;;;;;25.42;31.49;102488.72;5052926;28;20063;-47
2022/05/06 04:51:16;;;;;;;0.55;0.45;;;;;;;25.43;31.49;102487.88;5053148;28;20028;-44
2022/05/06 04:53:44;;;;;;;0.65;0.60;;;;;;;25.42;31.30;102487.84;5052992;28;20032;-46
2022/05/06 04:56:13;;;;;;;0.47;0.47;;;;;;;25.45;31.50;102486.19;5052657;28;20541;-47
2022/05/06 04:58:41;;;;;;;0.45;0.43;;;;;;;25.44;31.48;102483.53;5052934;28;20029;-46
2022/05/06 05:01:10;;;;;;;0.60;0.50;;;;;;;25.50;31.58;102482.81;5057041;28;20411;-50
2022/05/06 05:03:39;;;;;;;1.25;0.55;;;;;;;25.53;31.43;102490.81;5057178;28;20017;-49
2022/05/06 05:06:08;;;;;;;0.80;0.40;;;;;;;25.35;31.41;102476.22;5056679;28;20029;-49
2022/05/06 05:08:36;;;;;;;0.40;0.40;;;;;;;25.43;31.32;102490.50;5056327;28;20096;-50
2022/05/06 05:11:05;;;;;;;1.15;0.45;;;;;;;25.45;31.42;102495.81;5057051;28;20025;-43
2022/05/06 05:13:35;;;;;;;1.50;0.80;;;;;;;25.46;31.39;102492.34;5056938;28;20425;-48
2022/05/06 05:16:03;;;;;;;1.58;0.90;;;;;;;25.46;31.36;102482.72;5057288;28;20021;-47
2022/05/06 05:18:31;;;;;;;1.20;0.70;;;;;;;25.51;31.15;102503.88;5056960;28;20036;-44
2022/05/06 05:21:00;;;;;;;1.63;0.70;;;;;;;25.54;31.36;102503.09;5056591;28;20053;-44
2022/05/06 05:23:29;;;;;;;0.77;0.75;;;;;;;25.52;31.06;102502.16;5056777;28;20028;-44
2022/05/06 05:25:58;;;;;;;0.63;0.60;;;;;;;25.44;31.37;102508.06;5055608;28;20059;-44
2022/05/06 05:28:26;;;;;;;1.02;0.60;;;;;;;25.52;31.10;102510.91;5055049;28;20033;-45
2022/05/06 05:30:55;;;;;;;0.73;0.60;;;;;;;25.58;31.19;102521.63;5055436;28;20486;-47
2022/05/06 05:33:23;;;;;;;0.60;0.60;;;;;;;25.53;31.22;102520.59;5056573;28;20056;-45
2022/05/06 05:35:52;;;;;;;0.50;0.50;;;;;;;25.55;31.01;102515.41;5056208;28;20057;-44
2022/05/06 05:38:20;;;;;;;0.70;0.60;;;;;;;25.62;30.87;102518.25;5056589;28;20037;-44
2022/05/06 05:40:50;;;;;;;0.90;0.60;;;;;;;25.61;30.77;102508.59;5056535;28;20017;-48
2022/05/06 05:48:56;;;;;;;1.13;0.77;;;;;;;25.53;31.01;102517.09;5052468;28;20128;-48
2022/05/06 05:51:25;;;;;;;0.50;0.50;;;;;;;25.54;31.00;102530.25;5055169;28;20043;-44
2022/05/06 05:53:54;;;;;;;0.60;0.60;;;;;;;25.58;30.97;102521.63;5056310;28;20036;-48
2022/05/06 05:56:22;;;;;;;1.52;0.80;;;;;;;25.54;31.22;102527.63;5056315;28;20477;-44
2022/05/06 05:58:51;;;;;;;1.25;0.70;;;;;;;25.57;31.20;102527.72;5056069;28;20409;-45
2022/05/06 06:01:20;;;;;;;0.65;0.63;;;;;;;25.59;31.19;102517.25;5056271;28;20017;-44
2022/05/06 06:03:49;;;;;;;0.65;0.65;;;;;;;25.65;31.17;102534.97;5056018;28;20111;-44
2022/05/06 06:06:17;;;;;;;0.50;0.50;;;;;;;25.55;31.20;102528.53;5054310;28;20033;-46
2022/05/06 06:08:46;;;;;;;0.70;0.70;;;;;;;25.61;31.18;102529.63;5054533;28;20048;-47
2022/05/06 06:11:14;;;;;;;1.48;0.60;;;;;;;25.67;30.82;102533.25;5054527;28;20025;-47
2022/05/06 06:13:43;;;;;;;0.63;0.60;;;;;;;25.66;30.91;102535.00;5055784;28;20033;-43
2022/05/06 06:16:11;;;;;;;0.57;0.50;;;;;;;25.65;31.42;102537.59;5056020;28;20079;-48
2022/05/06 06:18:40;;;;;;;0.57;0.57;;;;;;;25.62;31.27;102547.16;5055696;28;20029;-45
2022/05/06 06:21:09;;;;;;;0.60;0.50;;;;;;;25.66;31.20;102552.50;5055668;28;20040;-44
2022/05/06 06:23:37;;;;;;;0.88;0.70;;;;;;;25.65;31.34;102556.00;5055798;28;20482;-46
2022/05/06 06:26:06;;;;;;;1.70;0.80;;;;;;;25.65;30.85;102551.63;5055956;28;20027;-48
2022/05/06 06:28:34;;;;;;;0.70;0.70;;;;;;;25.64;31.12;102552.47;5055482;28;20055;-44
2022/05/06 06:31:03;;;;;;;0.73;0.73;;;;;;;25.66;31.22;102568.25;5055627;28;20051;-45
2022/05/06 06:33:32;;;;;;;1.13;1.00;;;;;;;25.57;31.12;102554.00;5055135;28;20037;-44
2022/05/06 06:36:00;;;;;;;0.90;0.50;;;;;;;25.60;31.28;102566.34;5054120;28;20359;-48
2022/05/06 06:38:29;;;;;;;0.68;0.68;;;;;;;25.64;31.45;102565.59;5055489;28;20033;-44
2022/05/06 06:40:57;;;;;;;1.23;0.70;;;;;;;25.63;31.06;102575.25;5070637;28;20060;-44
2022/05/06 06:43:25;;;;;;;0.57;0.43;;;;;;;25.63;31.22;102571.69;5055301;28;20027;-48
2022/05/06 06:45:54;;;;;;;0.50;0.45;;;;;;;25.66;31.20;102581.41;5054888;28;20474;-46
2022/05/06 06:48:21;;;;;;;0.50;0.50;;;;;;;25.67;31.18;102584.09;5053968;28;20483;-44
2022/05/06 06:50:50;;;;;;;0.82;0.60;;;;;;;25.61;31.44;102578.63;5054856;28;20025;-49
2022/05/06 06:53:18;;;;;;;0.60;0.60;;;;;;;25.59;31.13;102572.44;5055206;28;20021;-44
2022/05/06 06:55:46;;;;;;;0.80;0.75;;;;;;;25.65;31.60;102590.16;5055315;28;20025;-45
2022/05/06 06:58:15;;;;;;;0.57;0.57;;;;;;;25.63;31.21;102583.13;5055002;28;20036;-46
2022/05/06 07:00:43;;;;;;;0.80;0.70;;;;;;;25.61;31.45;102582.19;5055061;28;20033;-47
2022/05/06 07:03:13;;;;;;;2.55;0.60;;;;;;;25.66;31.49;102581.41;5055667;28;20373;-45
2022/05/06 07:11:58;;;;;;;0.65;0.50;;;;;;;25.67;31.43;102589.34;5054548;28;20041;-51
2022/05/06 07:14:04;;;;;;;0.50;0.50;;;;;;;25.71;31.51;102585.09;5054158;28;20039;-47
2022/05/06 07:16:32;;;;;;;0.90;0.60;;;;;;;25.70;31.79;102593.81;5054689;28;20024;-44
2022/05/06 07:19:01;;;;;;;0.45;0.45;;;;;;;25.70;31.51;102589.47;5053527;28;20043;-48
2022/05/06 07:21:30;;;;;;;0.98;0.50;;;;;;;25.59;31.67;102570.72;5053979;28;20049;-45
2022/05/06 07:23:58;;;;;;;0.95;0.70;;;;;;;25.73;31.51;102601.78;5054178;28;20021;-44
2022/05/06 07:26:27;;;;;;;1.55;0.95;;;;;;;25.74;31.56;102590.44;5053995;28;20472;-45
2022/05/06 07:28:56;;;;;;;0.63;0.60;;;;;;;25.79;31.83;102597.63;5054433;28;20025;-49
2022/05/06 07:31:24;;;;;;;0.55;0.52;;;;;;;25.76;31.76;102597.50;5054393;28;20478;-44
2022/05/06 07:33:53;;;;;;;1.27;0.70;;;;;;;25.72;31.91;102586.88;5053138;28;20108;-47
2022/05/06 07:36:23;;;;;;;0.65;0.65;;;;;;;25.74;31.87;102593.06;5054372;28;20025;-51
2022/05/06 07:38:52;;;;;;;0.68;0.60;;;;;;;25.74;31.91;102600.94;5054146;28;20449;-50
2022/05/06 07:41:20;;;;;;;0.70;0.70;;;;;;;25.72;31.94;102589.50;5053921;28;20033;-44
2022/05/06 07:43:49;;;;;;;1.27;0.50;;;;;;;25.77;31.94;102607.19;5054153;28;20075;-47
2022/05/06 07:46:18;;;;;;;0.95;0.75;;;;;;;25.85;31.98;102599.53;5054147;28;20031;-46
2022/05/06 07:48:46;;;;;;;0.60;0.60;;;;;;;25.87;32.40;102605.75;5053563;28;20497;-47
2022/05/06 07:51:15;;;;;;;2.05;0.63;;;;;;;25.90;32.24;102608.47;5054171;28;20021;-44
2022/05/06 07:53:43;;;;;;;1.15;0.75;;;;;;;25.96;32.12;102606.88;5069134;28;20029;-46
2022/05/06 07:56:11;;;;;;;0.65;0.65;;;;;;;26.02;32.41;102604.41;5053894;28;20491;-44
2022/05/06 07:58:40;;;;;;;0.85;0.57;;;;;;;26.01;32.25;102584.22;5053454;28;20557;-47
2022/05/06 08:01:11;;;;;;;0.50;0.50;;;;;;;26.06;32.51;102601.03;5053040;28;20040;-43
2022/05/06 08:06:26;;;;;;;0.50;0.50;;;;;;;26.15;32.36;102600.47;5053385;28;20044;-44
2022/05/06 08:08:55;;;;;;;0.60;0.60;;;;;;;26.18;32.40;102596.19;5053767;28;20021;-44
2022/05/06 08:11:23;;;;;;;0.50;0.50;;;;;;;26.23;32.30;102588.41;5053332;28;20078;-44
2022/05/06 08:13:52;;;;;;;1.00;0.55;;;;;;;26.27;32.24;102590.28;5053576;28;20021;-49
2022/05/06 08:16:21;;;;;;;0.75;0.63;;;;;;;26.31;32.23;102588.66;5053476;28;20436;-49
2022/05/06 08:18:48;;;;;;;0.65;0.50;;;;;;;26.38;32.11;102585.34;5053356;28;20028;-50
2022/05/06 08:21:17;;;;;;;0.50;0.50;;;;;;;26.39;32.65;102587.13;5053348;28;20075;-47
2022/05/06 08:23:46;;;;;;;1.10;0.77;;;;;;;26.45;32.32;102597.84;5053179;28;20390;-46
2022/05/06 08:26:14;;;;;;;0.80;0.70;;;;;;;26.44;32.44;102592.50;5052156;28;20033;-44
2022/05/06 08:28:43;;;;;;;0.50;0.50;;;;;;;26.54;32.24;102605.97;5053453;28;20032;-47
2022/05/06 08:31:11;;;;;;;0.50;0.50;;;;;;;26.58;32.40;102604.31;5053433;28;20061;-44
2022/05/06 08:33:40;;;;;;;2.58;0.50;;;;;;;26.63;32.12;102596.56;5053275;28;20107;-45
2022/05/06 08:36:09;;;;;;;0.55;0.55;;;;;;;26.64;32.33;102606.25;5053412;28;20025;-44
2022/05/06 08:38:37;;;;;;;0.95;0.70;;;;;;;26.69;32.35;102604.63;5053316;28;20037;-48
2022/05/06 08:41:07;;;;;;;0.63;0.60;;;;;;;26.76;32.22;102608.31;5053403;28;20104;-48
2022/05/06 08:43:35;;;;;;;1.25;0.70;;;;;;;26.72;32.19;102588.91;5051729;28;20029;-44
2022/05/06 08:51:40;;;;;;;0.77;0.60;;;;;;;26.92;32.21;102596.50;5052707;28;20459;-47
2022/05/06 08:54:09;;;;;;;0.50;0.50;;;;;;;26.99;32.12;102598.41;5053274;28;20048;-45
2022/05/06 08:56:36;;;;;;;0.50;0.50;;;;;;;27.01;32.16;102588.81;5052918;28;20029;-45
2022/05/06 08:59:05;;;;;;;0.60;0.60;;;;;;;27.05;31.94;102595.06;5052527;28;20029;-44
2022/05/06 09:01:34;;;;;;;2.10;0.60;;;;;;;27.08;31.80;102600.41;5052946;28;20098;-46
2022/05/06 09:04:01;;;;;;;0.50;0.40;;;;;;;27.10;32.08;102593.44;5051972;28;20024;-47
2022/05/06 09:06:32;;;;;;;0.43;0.43;;;;;;;27.12;32.19;102592.63;5051877;28;20109;-47
2022/05/06 09:09:01;;;;;;;0.60;0.60;;;;;;;27.16;31.92;102593.59;5052950;28;20423;-47
2022/05/06 09:17:26;;;;;;;0.80;0.68;;;;;;;27.29;31.82;102579.00;5052256;28;20119;-46
2022/05/06 09:19:55;;;;;;;1.05;0.60;;;;;;;27.36;31.77;102572.13;5052747;28;20029;-47
2022/05/06 09:22:29;;;;;;;0.40;0.40;;;;;;;27.38;31.75;102573.94;5052931;28;20032;-52
2022/05/06 09:24:58;;;;;;;0.70;0.50;;;;;;;27.43;31.63;102577.56;5052760;28;20095;-44
2022/05/06 09:27:26;;;;;;;0.70;0.50;;;;;;;27.46;31.64;102576.78;5052549;28;20166;-44
2022/05/06 09:29:55;;;;;;;0.50;0.50;;;;;;;27.51;31.49;102569.88;5052798;28;20022;-44
2022/05/06 09:32:25;;;;;;;0.70;0.70;;;;;;;27.53;31.61;102573.44;5053009;28;20044;-44
2022/05/06 09:34:56;;;;;;;0.50;0.50;;;;;;;27.55;31.66;102579.63;5052714;28;20029;-48
2022/05/06 09:37:44;;;;;;;1.00;0.60;;;;;;;27.62;31.72;102578.03;5051436;28;20021;-48
2022/05/06 09:40:15;;;;;;;0.50;0.50;;;;;;;27.63;31.76;102574.56;5042759;28;20048;-45
2022/05/06 09:43:03;;;;;;;0.60;0.60;;;;;;;27.68;31.60;102574.66;5052696;28;20347;-49
2022/05/06 09:45:43;;;;;;;0.40;0.40;;;;;;;27.67;31.76;102575.50;5053654;28;20032;-47
2022/05/06 09:48:13;;;;;;;1.02;0.52;;;;;;;27.72;31.85;102571.19;5056121;28;20104;-48
2022/05/06 09:50:52;;;;;;;1.13;0.60;;;;;;;27.76;31.81;102570.41;5056394;28;20466;-44
2022/05/06 09:53:21;;;;;;;0.77;0.60;;;;;;;27.79;31.90;102567.84;5055678;28;20028;-47
2022/05/06 09:55:49;;;;;;;1.05;0.50;;;;;;;27.82;31.83;102567.94;5071579;28;20032;-48
2022/05/06 09:58:19;;;;;;;0.60;0.45;;;;;;;27.82;31.74;102569.66;5056186;28;20029;-45
2022/05/06 10:00:47;;;;;;;2.50;0.60;;;;;;;27.86;31.81;102568.88;5056381;28;20135;-46
2022/05/06 10:03:16;;;;;;;0.90;0.50;;;;;;;27.91;31.69;102569.88;5038390;28;20497;-47
2022/05/06 10:05:45;;;;;;;0.88;0.57;;;;;;;27.92;31.45;102566.38;5056222;28;20108;-44
2022/05/06 10:08:17;;;;;;;1.95;0.70;;;;;;;27.97;31.63;102572.63;5054669;28;20028;-46
2022/05/06 10:10:48;;;;;;;2.42;0.60;;;;;;;28.00;31.47;102561.28;5054397;28;20028;-48
2022/05/06 10:13:22;;;;;;;1.05;0.60;;;;;;;28.01;31.40;102566.56;5055752;28;20040;-44
2022/05/06 10:15:53;;;;;;;1.38;0.80;;;;;;;28.02;31.37;102565.72;5054884;28;20513;-47
2022/05/06 10:18:41;;;;;;;1.65;0.68;;;;;;;28.08;31.26;102574.63;5054985;28;20039;-46
2022/05/06 10:21:11;;;;;;;1.55;0.60;;;;;;;28.02;31.21;102552.53;5055541;28;20041;-53
2022/05/06 10:23:58;;;;;;;0.88;0.60;;;;;;;28.14;31.39;102566.84;5055593;28;20049;-48
2022/05/06 10:26:46;;;;;;;1.17;0.75;;;;;;;28.14;31.37;102567.75;5055592;28;20068;-46
2022/05/06 10:32:59;;;;;;;1.75;0.55;;;;;;;28.22;31.29;102570.56;5051515;28;20566;-45
2022/05/06 10:35:47;;;;;;;1.20;0.70;;;;;;;28.25;31.15;102575.91;5055028;28;20040;-45
2022/05/06 10:38:17;;;;;;;2.63;0.55;;;;;;;28.24;31.20;102565.28;5055808;28;20029;-52
2022/05/06 10:40:58;;;;;;;0.77;0.50;;;;;;;28.26;31.24;102566.22;5055053;28;20033;-48
2022/05/06 10:43:45;;;;;;;0.73;0.73;;;;;;;28.30;31.08;102568.94;5055415;28;20024;-44
2022/05/06 10:46:32;;;;;;;0.73;0.60;;;;;;;28.28;31.24;102565.41;5055370;28;20033;-47
2022/05/06 10:49:38;;;;;;;0.80;0.65;;;;;;;28.33;31.13;102569.00;5055466;28;20029;-49
2022/05/06 10:52:26;;;;;;;1.13;0.60;;;;;;;28.38;31.04;102568.22;5051192;28;20033;-48
2022/05/06 10:54:58;;;;;;;2.35;0.93;;;;;;;28.29;30.99;102567.19;5047950;28;20068;-49
2022/05/06 10:57:28;;;;;;;0.43;0.40;;;;;;;28.37;30.95;102566.44;5053948;28;20033;-45
2022/05/06 11:00:10;;;;;;;1.90;1.05;;;;;;;28.35;30.98;102566.41;5053465;28;20025;-44
2022/05/06 11:02:40;;;;;;;0.60;0.60;;;;;;;28.34;30.78;102568.16;5070316;28;20032;-46
2022/05/06 11:05:14;;;;;;;2.00;0.75;;;;;;;28.39;30.92;102560.31;5054892;28;20040;-49
2022/05/06 11:07:45;;;;;;;1.27;0.60;;;;;;;28.43;30.94;102554.25;5054687;28;20025;-50
2022/05/06 11:10:16;;;;;;;1.10;0.47;;;;;;;28.42;31.04;102556.88;5053523;28;20033;-44
2022/05/06 11:12:47;;;;;;;1.95;0.80;;;;;;;28.43;30.63;102548.09;5054705;28;20135;-48
2022/05/06 11:15:18;;;;;;;1.00;0.70;;;;;;;28.44;30.69;102553.38;5055036;28;20040;-48
2022/05/06 11:17:51;;;;;;;1.85;0.80;;;;;;;28.44;30.78;102555.16;5054651;28;20076;-44
2022/05/06 11:20:23;;;;;;;1.38;0.63;;;;;;;28.47;30.68;102555.19;5054064;28;20041;-45
2022/05/06 11:22:52;;;;;;;2.35;0.90;;;;;;;28.47;30.68;102560.47;5054690;28;20531;-46
2022/05/06 11:25:22;;;;;;;3.15;1.13;;;;;;;28.49;30.43;102549.09;5054442;28;20536;-45
2022/05/06 11:27:54;;;;;;;1.13;0.60;;;;;;;28.53;30.37;102557.06;5054470;28;20045;-50
2022/05/06 11:30:25;;;;;;;1.50;0.80;;;;;;;28.52;30.65;102557.94;5054497;28;20021;-47
2022/05/06 11:32:56;;;;;;;2.65;0.93;;;;;;;28.52;30.42;102560.56;5054305;28;20033;-51
2022/05/06 11:35:44;;;;;;;3.33;0.70;;;;;;;28.57;30.47;102556.25;5054234;28;20029;-46
2022/05/06 11:38:13;;;;;;;0.93;0.57;;;;;;;28.54;30.45;102549.16;5054355;28;20060;-45
2022/05/06 11:40:42;;;;;;;1.00;0.60;;;;;;;28.57;30.66;102553.59;5054440;28;20357;-48
2022/05/06 11:43:22;;;;;;;3.00;1.00;;;;;;;28.58;30.44;102552.75;5054062;28;20060;-46
2022/05/06 11:48:44;;;;;;;1.77;0.70;;;;;;;28.59;30.61;102560.72;5050642;28;20408;-49
2022/05/06 11:51:16;;;;;;;1.52;0.80;;;;;;;28.59;30.40;102554.53;5054313;28;20386;-45
2022/05/06 11:53:45;;;;;;;1.15;0.80;;;;;;;28.61;30.44;102553.72;5054090;28;20075;-50
2022/05/06 11:56:13;;;;;;;1.83;0.90;;;;;;;28.62;30.44;102554.59;5052325;28;20028;-51
2022/05/06 11:58:46;;;;;;;1.63;0.90;;;;;;;28.62;30.48;102565.16;5053906;28;20033;-49
2022/05/06 12:01:26;;;;;;;1.83;0.95;;;;;;;28.61;30.45;102553.72;5052973;28;20028;-52
2022/05/06 12:03:58;;;;;;;1.23;0.80;;;;;;;28.62;30.54;102557.22;5053706;28;20479;-46
2022/05/06 12:06:28;;;;;;;1.58;0.68;;;;;;;28.64;30.48;102548.47;5052927;28;20021;-47
2022/05/06 12:09:17;;;;;;;1.88;0.90;;;;;;;28.66;30.59;102545.88;5053597;28;20068;-47
2022/05/06 12:11:47;;;;;;;1.85;1.05;;;;;;;28.64;30.33;102542.31;5052582;28;20106;-49
2022/05/06 12:14:17;;;;;;;1.38;0.73;;;;;;;28.66;30.63;102557.31;5053635;28;20029;-46
2022/05/06 12:16:57;;;;;;;1.88;0.77;;;;;;;28.68;30.52;102548.53;5053565;28;20025;-44
2022/05/06 12:19:45;;;;;;;1.58;0.60;;;;;;;28.70;30.51;102549.44;5069002;28;20137;-50